sensor_id;sensor_type;location;lat;lon;timestamp;pressure;altitude;pressure_sealevel;temperature;humidity
36304;BME280;22335;49.800;8.596;2022-07-15T00:05:42;100821.78;;;27.85;26.40
36304;BME280;22335;49.800;8.596;2022-07-15T00:12:30;100810.06;;;27.75;26.67
36304;BME280;22335;49.800;8.596;2022-07-15T00:19:16;100814.06;;;27.74;27.04
36304;BME280;22335;49.800;8.596;2022-07-15T00:26:02;100820.06;;;27.69;26.80
36304;BME280;22335;49.800;8.596;2022-07-15T00:32:50;100804.72;;;27.56;26.87
36304;BME280;22335;49.800;8.596;2022-07-15T00:39:36;100726.47;;;26.96;27.27
36304;BME280;22335;49.800;8.596;2022-07-15T00:46:22;100817.13;;;27.44;27.48
36304;BME280;22335;49.800;8.596;2022-07-15T00:53:13;100807.72;;;27.22;27.67
36304;BME280;22335;49.800;8.596;2022-07-15T01:00:05;100812.50;;;27.18;27.79
36304;BME280;22335;49.800;8.596;2022-07-15T01:06:53;100735.84;;;26.66;27.55
36304;BME280;22335;49.800;8.596;2022-07-15T01:13:41;100746.72;;;26.71;27.56
36304;BME280;22335;49.800;8.596;2022-07-15T01:20:28;100817.94;;;27.00;27.79
36304;BME280;22335;49.800;8.596;2022-07-15T01:27:17;100808.44;;;26.67;28.75
36304;BME280;22335;49.800;8.596;2022-07-15T01:34:05;100817.91;;;26.52;28.49
36304;BME280;22335;49.800;8.596;2022-07-15T01:40:51;100824.59;;;26.44;28.57
36304;BME280;22335;49.800;8.596;2022-07-15T01:47:44;100772.50;;;26.06;28.82
36304;BME280;22335;49.800;8.596;2022-07-15T01:54:54;100836.09;;;26.35;28.89
36304;BME280;22335;49.800;8.596;2022-07-15T02:01:40;100841.13;;;26.19;29.71
36304;BME280;22335;49.800;8.596;2022-07-15T02:08:31;100837.81;;;26.10;29.45
36304;BME280;22335;49.800;8.596;2022-07-15T02:15:17;100833.88;;;26.14;29.65
36304;BME280;22335;49.800;8.596;2022-07-15T02:22:07;100828.94;;;26.04;30.08
36304;BME280;22335;49.800;8.596;2022-07-15T02:28:55;100809.09;;;25.86;29.70
36304;BME280;22335;49.800;8.596;2022-07-15T02:35:42;100730.34;;;25.35;29.99
36304;BME280;22335;49.800;8.596;2022-07-15T02:42:28;100826.22;;;26.11;29.32
36304;BME280;22335;49.800;8.596;2022-07-15T03:03:08;100843.53;;;25.87;29.82
36304;BME280;22335;49.800;8.596;2022-07-15T03:09:56;100820.69;;;25.58;29.82
36304;BME280;22335;49.800;8.596;2022-07-15T03:16:42;100878.66;;;25.81;30.11
36304;BME280;22335;49.800;8.596;2022-07-15T03:23:31;100866.63;;;25.53;30.33
36304;BME280;22335;49.800;8.596;2022-07-15T03:30:17;100874.88;;;25.43;30.52
36304;BME280;22335;49.800;8.596;2022-07-15T03:37:04;100884.84;;;25.40;30.47
36304;BME280;22335;49.800;8.596;2022-07-15T03:43:52;100883.09;;;25.32;30.80
36304;BME280;22335;49.800;8.596;2022-07-15T03:50:38;100892.13;;;25.22;30.96
36304;BME280;22335;49.800;8.596;2022-07-15T03:57:24;100906.06;;;25.18;30.61
36304;BME280;22335;49.800;8.596;2022-07-15T04:04:12;100871.06;;;24.85;31.08
36304;BME280;22335;49.800;8.596;2022-07-15T04:10:58;100899.50;;;24.88;31.24
36304;BME280;22335;49.800;8.596;2022-07-15T04:17:44;100900.59;;;24.83;31.50
36304;BME280;22335;49.800;8.596;2022-07-15T04:24:36;100901.34;;;24.80;31.76
36304;BME280;22335;49.800;8.596;2022-07-15T04:31:26;100909.16;;;24.71;31.79
36304;BME280;22335;49.800;8.596;2022-07-15T04:38:21;100906.44;;;24.55;31.97
36304;BME280;22335;49.800;8.596;2022-07-15T04:45:14;100901.81;;;24.43;32.05
36304;BME280;22335;49.800;8.596;2022-07-15T04:52:01;100904.44;;;24.36;32.42
36304;BME280;22335;49.800;8.596;2022-07-15T04:58:48;100915.63;;;24.36;32.96
36304;BME280;22335;49.800;8.596;2022-07-15T05:05:37;100907.31;;;24.39;32.97
36304;BME280;22335;49.800;8.596;2022-07-15T05:12:25;100928.16;;;24.42;33.59
36304;BME280;22335;49.800;8.596;2022-07-15T05:19:12;100935.25;;;24.39;34.00
36304;BME280;22335;49.800;8.596;2022-07-15T05:26:01;100943.41;;;24.45;34.39
36304;BME280;22335;49.800;8.596;2022-07-15T05:32:51;100949.50;;;24.50;34.38
36304;BME280;22335;49.800;8.596;2022-07-15T05:39:37;100953.56;;;24.53;34.49
36304;BME280;22335;49.800;8.596;2022-07-15T05:46:45;100947.31;;;24.59;34.87
36304;BME280;22335;49.800;8.596;2022-07-15T05:53:34;100960.75;;;24.73;34.53
36304;BME280;22335;49.800;8.596;2022-07-15T06:00:21;100973.50;;;24.90;34.08
36304;BME280;22335;49.800;8.596;2022-07-15T06:07:09;100983.59;;;24.75;33.54
36304;BME280;22335;49.800;8.596;2022-07-15T06:13:55;100986.47;;;24.59;33.22
36304;BME280;22335;49.800;8.596;2022-07-15T06:20:41;100967.78;;;24.28;33.65
36304;BME280;22335;49.800;8.596;2022-07-15T06:27:29;100981.09;;;24.35;33.54
36304;BME280;22335;49.800;8.596;2022-07-15T06:34:16;100990.13;;;24.44;33.60
36304;BME280;22335;49.800;8.596;2022-07-15T06:41:02;100987.28;;;24.60;33.64
36304;BME280;22335;49.800;8.596;2022-07-15T06:47:50;100980.72;;;24.72;33.37
36304;BME280;22335;49.800;8.596;2022-07-15T06:54:38;100983.06;;;24.89;33.28
36304;BME280;22335;49.800;8.596;2022-07-15T07:01:23;100984.00;;;25.16;33.30
36304;BME280;22335;49.800;8.596;2022-07-15T07:08:13;100976.47;;;25.20;33.23
36304;BME280;22335;49.800;8.596;2022-07-15T07:14:58;100969.38;;;25.26;33.00
36304;BME280;22335;49.800;8.596;2022-07-15T07:21:45;100990.00;;;25.38;33.12
36304;BME280;22335;49.800;8.596;2022-07-15T07:28:34;100971.72;;;25.44;33.31
36304;BME280;22335;49.800;8.596;2022-07-15T07:35:20;100978.72;;;25.57;33.51
36304;BME280;22335;49.800;8.596;2022-07-15T07:42:06;100977.28;;;25.67;33.18
36304;BME280;22335;49.800;8.596;2022-07-15T07:48:54;100968.13;;;25.70;33.50
36304;BME280;22335;49.800;8.596;2022-07-15T07:55:59;100976.69;;;25.77;33.22
36304;BME280;22335;49.800;8.596;2022-07-15T08:02:45;100977.78;;;25.95;33.12
36304;BME280;22335;49.800;8.596;2022-07-15T08:09:34;100975.53;;;26.05;33.14
36304;BME280;22335;49.800;8.596;2022-07-15T08:16:19;100929.53;;;25.83;32.95
36304;BME280;22335;49.800;8.596;2022-07-15T08:23:06;100928.03;;;25.89;32.83
36304;BME280;22335;49.800;8.596;2022-07-15T08:29:55;100977.50;;;26.31;32.92
36304;BME280;22335;49.800;8.596;2022-07-15T08:36:41;100972.97;;;26.49;32.37
36304;BME280;22335;49.800;8.596;2022-07-15T08:43:26;100972.03;;;26.72;32.13
36304;BME280;22335;49.800;8.596;2022-07-15T08:50:17;100974.88;;;26.75;32.51
36304;BME280;22335;49.800;8.596;2022-07-15T08:57:03;100983.81;;;26.84;32.24
36304;BME280;22335;49.800;8.596;2022-07-15T09:03:48;100982.72;;;26.93;32.03
36304;BME280;22335;49.800;8.596;2022-07-15T09:10:47;100981.59;;;27.01;32.12
36304;BME280;22335;49.800;8.596;2022-07-15T09:17:34;100985.19;;;26.98;32.02
36304;BME280;22335;49.800;8.596;2022-07-15T09:24:20;100988.09;;;27.08;31.72
36304;BME280;22335;49.800;8.596;2022-07-15T09:31:08;100985.00;;;27.17;31.77
36304;BME280;22335;49.800;8.596;2022-07-15T09:38:06;100993.72;;;27.46;31.72
36304;BME280;22335;49.800;8.596;2022-07-15T09:44:51;100987.84;;;27.65;31.59
36304;BME280;22335;49.800;8.596;2022-07-15T09:51:50;100926.59;;;27.37;31.00
36304;BME280;22335;49.800;8.596;2022-07-15T09:58:39;100980.19;;;28.07;30.71
36304;BME280;22335;49.800;8.596;2022-07-15T10:05:25;100895.09;;;27.62;30.33
36304;BME280;22335;49.800;8.596;2022-07-15T10:12:18;100977.44;;;28.21;30.60
36304;BME280;22335;49.800;8.596;2022-07-15T10:19:10;100977.47;;;28.24;30.80
36304;BME280;22335;49.800;8.596;2022-07-15T10:26:19;100975.06;;;28.26;30.73
36304;BME280;22335;49.800;8.596;2022-07-15T10:33:19;100966.28;;;28.35;30.39
36304;BME280;22335;49.800;8.596;2022-07-15T10:40:06;100962.88;;;28.78;30.14
36304;BME280;22335;49.800;8.596;2022-07-15T10:47:16;100950.03;;;28.98;29.72
36304;BME280;22335;49.800;8.596;2022-07-15T10:54:08;100943.63;;;29.01;29.34
36304;BME280;22335;49.800;8.596;2022-07-15T11:00:55;100890.06;;;28.80;29.02
36304;BME280;22335;49.800;8.596;2022-07-15T11:07:41;100950.09;;;29.23;29.18
36304;BME280;22335;49.800;8.596;2022-07-15T11:14:44;100932.78;;;29.14;29.48
36304;BME280;22335;49.800;8.596;2022-07-15T11:21:31;100940.44;;;29.13;28.76
36304;BME280;22335;49.800;8.596;2022-07-15T11:28:17;100932.41;;;29.19;28.82
36304;BME280;22335;49.800;8.596;2022-07-15T11:35:06;100930.78;;;29.25;28.30
36304;BME280;22335;49.800;8.596;2022-07-15T11:41:57;100884.09;;;29.13;28.23
36304;BME280;22335;49.800;8.596;2022-07-15T11:48:56;100887.72;;;29.46;28.35
36304;BME280;22335;49.800;8.596;2022-07-15T11:55:53;100913.47;;;29.70;28.18
36304;BME280;22335;49.800;8.596;2022-07-15T12:02:40;100917.53;;;29.79;27.65
36304;BME280;22335;49.800;8.596;2022-07-15T12:09:33;100910.22;;;29.96;27.55
36304;BME280;22335;49.800;8.596;2022-07-15T12:16:33;100907.78;;;30.05;27.23
36304;BME280;22335;49.800;8.596;2022-07-15T12:23:20;100904.19;;;30.01;27.18
36304;BME280;22335;49.800;8.596;2022-07-15T12:30:09;100894.44;;;30.13;27.17
36304;BME280;22335;49.800;8.596;2022-07-15T12:36:58;100900.91;;;30.17;26.76
36304;BME280;22335;49.800;8.596;2022-07-15T12:43:49;100887.16;;;30.30;26.61
36304;BME280;22335;49.800;8.596;2022-07-15T12:50:58;100894.72;;;30.54;26.18
36304;BME280;22335;49.800;8.596;2022-07-15T12:57:47;100891.81;;;30.65;25.17
36304;BME280;22335;49.800;8.596;2022-07-15T13:04:33;100892.94;;;30.86;25.33
36304;BME280;22335;49.800;8.596;2022-07-15T13:11:18;100888.09;;;30.86;25.31
36304;BME280;22335;49.800;8.596;2022-07-15T13:18:06;100870.78;;;30.77;25.13
36304;BME280;22335;49.800;8.596;2022-07-15T13:24:52;100872.75;;;30.87;25.00
36304;BME280;22335;49.800;8.596;2022-07-15T13:31:38;100876.00;;;30.86;25.03
36304;BME280;22335;49.800;8.596;2022-07-15T13:38:26;100869.88;;;30.94;24.52
36304;BME280;22335;49.800;8.596;2022-07-15T13:45:13;100866.56;;;31.07;24.19
36304;BME280;22335;49.800;8.596;2022-07-15T13:51:59;100851.97;;;31.12;23.94
36304;BME280;22335;49.800;8.596;2022-07-15T13:58:48;100844.56;;;31.29;23.51
36304;BME280;22335;49.800;8.596;2022-07-15T14:05:33;100858.22;;;31.41;23.82
36304;BME280;22335;49.800;8.596;2022-07-15T14:12:19;100857.81;;;31.39;23.60
36304;BME280;22335;49.800;8.596;2022-07-15T14:19:08;100820.94;;;31.08;23.88
36304;BME280;22335;49.800;8.596;2022-07-15T14:25:54;100849.13;;;31.15;24.02
36304;BME280;22335;49.800;8.596;2022-07-15T14:32:40;100839.06;;;31.11;23.35
36304;BME280;22335;49.800;8.596;2022-07-15T14:39:28;100843.91;;;31.14;23.62
36304;BME280;22335;49.800;8.596;2022-07-15T14:46:14;100847.47;;;31.18;23.38
36304;BME280;22335;49.800;8.596;2022-07-15T14:53:00;100842.28;;;31.13;23.31
36304;BME280;22335;49.800;8.596;2022-07-15T14:59:48;100851.66;;;31.02;23.39
36304;BME280;22335;49.800;8.596;2022-07-15T15:06:33;100823.91;;;30.90;23.00
36304;BME280;22335;49.800;8.596;2022-07-15T15:13:19;100845.44;;;31.18;23.16
36304;BME280;22335;49.800;8.596;2022-07-15T15:20:08;100832.91;;;31.23;22.70
36304;BME280;22335;49.800;8.596;2022-07-15T15:26:54;100802.75;;;31.13;22.85
36304;BME280;22335;49.800;8.596;2022-07-15T15:33:41;100833.22;;;31.36;22.65
36304;BME280;22335;49.800;8.596;2022-07-15T15:40:30;100826.69;;;31.42;22.64
36304;BME280;22335;49.800;8.596;2022-07-15T15:47:15;100827.41;;;31.54;22.50
36304;BME280;22335;49.800;8.596;2022-07-15T15:54:01;100822.16;;;31.52;22.06
36304;BME280;22335;49.800;8.596;2022-07-15T16:00:49;100814.94;;;31.48;22.12
36304;BME280;22335;49.800;8.596;2022-07-15T16:07:35;100814.16;;;31.43;22.14
36304;BME280;22335;49.800;8.596;2022-07-15T16:14:21;100825.44;;;31.47;22.22
36304;BME280;22335;49.800;8.596;2022-07-15T16:21:09;100812.16;;;31.44;21.83
36304;BME280;22335;49.800;8.596;2022-07-15T16:27:56;100810.09;;;31.48;21.53
36304;BME280;22335;49.800;8.596;2022-07-15T16:34:42;100808.59;;;31.36;21.74
36304;BME280;22335;49.800;8.596;2022-07-15T16:41:32;100809.81;;;31.35;21.63
36304;BME280;22335;49.800;8.596;2022-07-15T16:48:17;100801.25;;;31.42;21.73
36304;BME280;22335;49.800;8.596;2022-07-15T16:55:05;100797.41;;;31.22;21.40
36304;BME280;22335;49.800;8.596;2022-07-15T17:01:54;100786.97;;;31.12;21.57
36304;BME280;22335;49.800;8.596;2022-07-15T17:08:40;100770.72;;;30.78;21.44
36304;BME280;22335;49.800;8.596;2022-07-15T17:15:25;100810.09;;;30.99;21.43
36304;BME280;22335;49.800;8.596;2022-07-15T17:22:14;100802.06;;;30.98;21.45
36304;BME280;22335;49.800;8.596;2022-07-15T17:28:59;100811.31;;;30.98;20.97
36304;BME280;22335;49.800;8.596;2022-07-15T17:35:45;100812.56;;;30.94;21.29
36304;BME280;22335;49.800;8.596;2022-07-15T17:42:33;100810.63;;;30.84;21.50
36304;BME280;22335;49.800;8.596;2022-07-15T17:49:19;100809.56;;;30.60;21.34
36304;BME280;22335;49.800;8.596;2022-07-15T17:56:05;100825.69;;;30.66;21.28
36304;BME280;22335;49.800;8.596;2022-07-15T18:02:54;100823.34;;;30.50;21.17
36304;BME280;22335;49.800;8.596;2022-07-15T18:09:40;100833.94;;;30.32;21.30
36304;BME280;22335;49.800;8.596;2022-07-15T18:16:26;100831.97;;;30.15;21.04
36304;BME280;22335;49.800;8.596;2022-07-15T18:23:14;100836.47;;;30.05;21.31
36304;BME280;22335;49.800;8.596;2022-07-15T18:29:59;100841.72;;;29.99;21.32
36304;BME280;22335;49.800;8.596;2022-07-15T18:36:45;100838.91;;;29.96;21.44
36304;BME280;22335;49.800;8.596;2022-07-15T18:43:34;100838.13;;;29.88;21.38
36304;BME280;22335;49.800;8.596;2022-07-15T18:50:21;100844.19;;;29.86;21.34
36304;BME280;22335;49.800;8.596;2022-07-15T18:57:07;100834.53;;;29.80;21.40
36304;BME280;22335;49.800;8.596;2022-07-15T19:03:57;100832.16;;;29.68;21.68
36304;BME280;22335;49.800;8.596;2022-07-15T19:10:43;100845.44;;;29.68;21.62
36304;BME280;22335;49.800;8.596;2022-07-15T19:17:28;100849.47;;;29.63;21.82
36304;BME280;22335;49.800;8.596;2022-07-15T19:24:16;100854.69;;;29.57;21.72
36304;BME280;22335;49.800;8.596;2022-07-15T19:31:05;100864.78;;;29.55;21.41
36304;BME280;22335;49.800;8.596;2022-07-15T19:37:50;100868.78;;;29.54;21.53
36304;BME280;22335;49.800;8.596;2022-07-15T19:44:39;100730.41;;;28.59;21.82
36304;BME280;22335;49.800;8.596;2022-07-15T19:51:25;100874.84;;;29.38;22.08
36304;BME280;22335;49.800;8.596;2022-07-15T19:58:11;100882.09;;;29.32;22.17
36304;BME280;22335;49.800;8.596;2022-07-15T20:05:00;100876.06;;;29.12;22.20
36304;BME280;22335;49.800;8.596;2022-07-15T20:11:46;100893.34;;;29.07;22.75
36304;BME280;22335;49.800;8.596;2022-07-15T20:18:34;100822.44;;;28.58;22.79
36304;BME280;22335;49.800;8.596;2022-07-15T20:25:23;100863.88;;;28.61;22.51
36304;BME280;22335;49.800;8.596;2022-07-15T20:32:08;100890.41;;;28.60;22.54
36304;BME280;22335;49.800;8.596;2022-07-15T20:38:54;100887.16;;;28.47;22.74
36304;BME280;22335;49.800;8.596;2022-07-15T20:45:42;100884.25;;;28.26;23.35
36304;BME280;22335;49.800;8.596;2022-07-15T20:52:28;100818.88;;;27.70;23.54
36304;BME280;22335;49.800;8.596;2022-07-15T20:59:14;100917.16;;;28.18;23.55
36304;BME280;22335;49.800;8.596;2022-07-15T21:06:02;100918.44;;;28.39;23.41
36304;BME280;22335;49.800;8.596;2022-07-15T21:12:48;100915.94;;;28.16;23.77
36304;BME280;22335;49.800;8.596;2022-07-15T21:19:33;100916.41;;;28.32;23.36
36304;BME280;22335;49.800;8.596;2022-07-15T21:26:22;100919.91;;;28.04;23.71
36304;BME280;22335;49.800;8.596;2022-07-15T21:33:19;100926.31;;;28.01;24.03
36304;BME280;22335;49.800;8.596;2022-07-15T21:40:05;100925.63;;;28.22;23.39
36304;BME280;22335;49.800;8.596;2022-07-15T21:46:55;100930.72;;;28.02;23.98
36304;BME280;22335;49.800;8.596;2022-07-15T21:53:41;100944.41;;;28.07;24.27
36304;BME280;22335;49.800;8.596;2022-07-15T22:00:26;100944.53;;;28.28;23.97
36304;BME280;22335;49.800;8.596;2022-07-15T22:07:31;100938.34;;;28.01;24.55
36304;BME280;22335;49.800;8.596;2022-07-15T22:14:17;100946.75;;;27.94;25.22
36304;BME280;22335;49.800;8.596;2022-07-15T22:21:02;100946.34;;;27.92;24.84
36304;BME280;22335;49.800;8.596;2022-07-15T22:27:51;100939.91;;;27.92;25.30
36304;BME280;22335;49.800;8.596;2022-07-15T22:34:36;100950.31;;;27.88;25.04
36304;BME280;22335;49.800;8.596;2022-07-15T22:41:22;100955.50;;;27.82;25.34
36304;BME280;22335;49.800;8.596;2022-07-15T22:48:10;100945.97;;;27.49;25.93
36304;BME280;22335;49.800;8.596;2022-07-15T22:54:56;100955.91;;;27.36;25.79
36304;BME280;22335;49.800;8.596;2022-07-15T23:01:41;100913.75;;;26.95;25.86
36304;BME280;22335;49.800;8.596;2022-07-15T23:08:30;100950.53;;;27.20;25.94
36304;BME280;22335;49.800;8.596;2022-07-15T23:15:15;100964.94;;;27.19;26.26
36304;BME280;22335;49.800;8.596;2022-07-15T23:22:01;100962.75;;;27.01;26.86
36304;BME280;22335;49.800;8.596;2022-07-15T23:28:49;100958.03;;;26.75;26.86
36304;BME280;22335;49.800;8.596;2022-07-15T23:35:35;100978.69;;;26.60;27.03
36304;BME280;22335;49.800;8.596;2022-07-15T23:42:20;100952.81;;;26.43;26.88
36304;BME280;22335;49.800;8.596;2022-07-15T23:49:09;100954.78;;;26.39;27.28
36304;BME280;22335;49.800;8.596;2022-07-15T23:55:54;100972.78;;;26.38;27.65
